Time;durP1;ratioP1;P1;durP2;ratioP2;P2;SDS_P1;SDS_P2;PMS_P1;PMS_P2;Temp;Humidity;BMP_temperature;BMP_pressure;BME280_temperature;BME280_humidity;BME280_pressure;Samples;Min_cycle;Max_cycle;Signal;HPM_P1;HPM_P2
2024/02/13 00:00:19;;;;;;;8.80;5.20;;;;;;;10.02;63.20;99475.21;109074;1254;60129;-55
2024/02/13 00:02:46;;;;;;;6.80;2.50;;;;;;;10.08;63.15;99487.13;106741;1254;62427;-53
2024/02/13 00:05:14;;;;;;;8.30;4.20;;;;;;;10.15;62.90;99500.66;106556;1260;60561;-54
2024/02/13 00:07:42;;;;;;;7.30;4.20;;;;;;;10.20;62.83;99498.04;106030;1254;60555;-52
2024/02/13 00:10:10;;;;;;;7.80;4.20;;;;;;;10.27;62.90;99490.80;105117;1254;64944;-54
2024/02/13 00:12:39;;;;;;;8.40;4.30;;;;;;;10.28;62.84;99483.37;107010;1256;60296;-54
2024/02/13 00:15:10;;;;;;;12.60;4.40;;;;;;;10.27;62.98;99489.41;108691;1255;62474;-54
2024/02/13 00:17:41;;;;;;;11.80;5.10;;;;;;;10.24;62.89;99490.52;106931;1259;60363;-54
2024/02/13 00:20:10;;;;;;;7.60;1.90;;;;;;;10.22;63.09;99494.02;104898;1256;61322;-56
2024/02/13 00:22:38;;;;;;;8.50;4.60;;;;;;;10.24;63.12;99484.02;108659;1256;63810;-56
2024/02/13 00:25:06;;;;;;;8.80;4.10;;;;;;;10.27;63.20;99469.23;108607;1254;60412;-56
2024/02/13 00:27:35;;;;;;;11.00;4.40;;;;;;;10.35;63.44;99469.00;108637;1256;63762;-56
2024/02/13 00:30:03;;;;;;;10.80;4.10;;;;;;;10.39;63.47;99480.94;108657;1257;60855;-56
2024/02/13 00:32:36;;;;;;;14.10;5.30;;;;;;;10.39;63.47;99484.98;108431;1255;60971;-56
2024/02/13 00:35:08;;;;;;;10.10;4.80;;;;;;;10.36;63.55;99483.61;104092;1255;63653;-56
2024/02/13 00:37:36;;;;;;;11.50;4.50;;;;;;;10.36;63.84;99482.96;107207;1254;62430;-56
2024/02/13 00:40:09;;;;;;;8.20;1.90;;;;;;;10.42;63.59;99487.69;108602;1256;62468;-57
2024/02/13 00:42:38;;;;;;;10.70;4.10;;;;;;;10.52;63.75;99498.00;108461;1256;60208;-55
2024/02/13 00:45:07;;;;;;;12.40;4.20;;;;;;;10.62;64.01;99497.87;108670;1254;59524;-56
2024/02/13 00:47:35;;;;;;;10.80;4.70;;;;;;;10.72;63.92;99483.56;106859;1254;63778;-56
2024/02/13 00:50:03;;;;;;;10.60;5.00;;;;;;;10.73;63.57;99478.77;105190;1260;60473;-54
2024/02/13 00:52:32;;;;;;;12.20;4.90;;;;;;;10.68;63.55;99475.25;105677;1257;63729;-55
2024/02/13 00:55:00;;;;;;;12.30;5.10;;;;;;;10.65;63.61;99478.04;105681;1257;60600;-54
2024/02/13 00:57:28;;;;;;;8.50;2.10;;;;;;;10.63;63.75;99484.16;105146;1256;60345;-57
2024/02/13 00:59:56;;;;;;;8.90;3.80;;;;;;;10.64;63.57;99488.92;105691;1259;64969;-56
2024/02/13 01:02:24;;;;;;;9.10;4.40;;;;;;;10.64;63.35;99488.30;104374;1254;62178;-55
2024/02/13 01:04:52;;;;;;;8.90;4.20;;;;;;;10.61;63.22;99487.08;104230;1256;63656;-55
2024/02/13 01:07:19;;;;;;;9.40;4.40;;;;;;;10.56;63.12;99494.08;104712;1254;62612;-57
2024/02/13 01:09:47;;;;;;;10.80;5.20;;;;;;;10.55;63.55;99493.14;105217;1256;60324;-55
2024/02/13 01:12:15;;;;;;;10.90;4.90;;;;;;;10.52;63.46;99496.55;105323;1257;63677;-55
2024/02/13 01:14:42;;;;;;;8.90;4.60;;;;;;;10.46;63.37;99494.80;105159;1254;60542;-56
2024/02/13 01:17:10;;;;;;;12.20;4.40;;;;;;;10.45;63.28;99493.67;105075;1259;64627;-55
2024/02/13 01:19:38;;;;;;;8.90;4.30;;;;;;;10.44;62.94;99494.80;104265;1256;60431;-54
2024/02/13 01:22:06;;;;;;;11.10;4.90;;;;;;;10.42;62.87;99491.88;104271;1255;60993;-53
2024/02/13 01:24:33;;;;;;;4.70;2.00;;;;;;;10.41;63.24;99489.27;105139;1257;66031;-56
2024/02/13 01:27:01;;;;;;;10.30;4.80;;;;;;;10.40;63.33;99495.35;106248;1257;61466;-56
2024/02/13 01:29:29;;;;;;;7.60;4.10;;;;;;;10.36;63.22;99495.06;105055;1257;63677;-56
2024/02/13 01:31:56;;;;;;;7.00;1.50;;;;;;;10.29;62.93;99492.54;105159;1259;60908;-56
2024/02/13 01:34:26;;;;;;;7.40;3.40;;;;;;;10.21;62.60;99485.70;105855;1254;61555;-56
2024/02/13 01:36:57;;;;;;;5.10;1.30;;;;;;;10.15;62.23;99483.33;105092;1254;65977;-56
2024/02/13 01:39:25;;;;;;;12.60;4.40;;;;;;;10.09;62.09;99487.15;105146;1259;60312;-55
2024/02/13 01:41:53;;;;;;;8.20;4.40;;;;;;;10.03;62.15;99488.55;104227;1254;63828;-56
2024/02/13 01:44:21;;;;;;;6.70;3.80;;;;;;;9.99;62.25;99481.59;104224;1254;60572;-56
2024/02/13 01:46:52;;;;;;;4.90;1.80;;;;;;;9.94;62.27;99485.06;104634;1255;61855;-56
2024/02/13 01:49:21;;;;;;;7.60;3.80;;;;;;;9.84;62.04;99490.98;105187;1254;63719;-56
2024/02/13 01:51:51;;;;;;;9.40;4.10;;;;;;;9.70;61.93;99494.77;105241;1259;60655;-57
2024/02/13 01:54:18;;;;;;;5.00;1.60;;;;;;;9.55;61.94;99496.66;104739;1259;73993;-57
2024/02/13 01:56:49;;;;;;;6.70;3.40;;;;;;;9.47;61.80;99498.56;104471;1254;60633;-55
2024/02/13 01:59:17;;;;;;;5.80;1.60;;;;;;;9.42;61.98;99498.09;104394;1254;60504;-54
2024/02/13 02:01:45;;;;;;;9.20;4.40;;;;;;;9.46;62.40;99494.41;108678;1254;67564;-54
2024/02/13 02:04:12;;;;;;;8.00;4.40;;;;;;;9.47;62.45;99496.60;105683;1259;61492;-54
2024/02/13 02:06:41;;;;;;;5.40;1.70;;;;;;;9.48;62.61;99498.29;104099;1255;62497;-54
2024/02/13 02:09:09;;;;;;;8.30;4.10;;;;;;;9.45;62.58;99500.63;104149;1254;60543;-54
2024/02/13 02:11:37;;;;;;;5.40;2.10;;;;;;;9.39;62.72;99501.35;104255;1254;60501;-55
2024/02/13 02:14:06;;;;;;;15.30;5.30;;;;;;;9.36;62.82;99504.06;104301;1254;64018;-55
2024/02/13 02:16:33;;;;;;;12.20;4.40;;;;;;;9.35;62.81;99508.73;105788;1254;60537;-55
2024/02/13 02:19:02;;;;;;;6.50;1.80;;;;;;;9.36;62.72;99509.16;105032;1259;63903;-55
2024/02/13 02:21:31;;;;;;;9.70;4.80;;;;;;;9.36;62.60;99513.37;105159;1254;60475;-55
2024/02/13 02:23:59;;;;;;;3.30;1.20;;;;;;;9.34;62.51;99517.95;105097;1256;60555;-55
2024/02/13 02:26:27;;;;;;;9.70;4.50;;;;;;;9.33;62.56;99516.94;105678;1254;63795;-55
2024/02/13 02:28:55;;;;;;;7.00;2.60;;;;;;;9.28;62.57;99517.77;105140;1254;60864;-55
2024/02/13 02:31:22;;;;;;;9.20;4.20;;;;;;;9.20;62.58;99516.23;105120;1260;62487;-55
2024/02/13 02:33:50;;;;;;;4.00;1.30;;;;;;;9.10;62.65;99516.04;105058;1256;60531;-56
2024/02/13 02:36:19;;;;;;;8.10;4.50;;;;;;;8.99;62.71;99513.60;105179;1254;61103;-56
2024/02/13 02:38:47;;;;;;;4.40;2.20;;;;;;;8.89;62.76;99507.49;104895;1254;63685;-56
2024/02/13 02:41:15;;;;;;;6.30;3.90;;;;;;;8.80;62.72;99509.20;108303;1254;62487;-56
2024/02/13 02:43:43;;;;;;;3.20;0.90;;;;;;;8.70;62.62;99513.70;105246;1254;62570;-56
2024/02/13 02:46:12;;;;;;;6.10;3.40;;;;;;;8.67;62.49;99513.94;106186;1256;60434;-56
2024/02/13 02:48:40;;;;;;;5.00;1.10;;;;;;;8.65;62.23;99511.27;105121;1258;60780;-56
2024/02/13 02:51:09;;;;;;;3.40;1.00;;;;;;;8.65;62.14;99514.16;108616;1254;63710;-55
2024/02/13 02:53:36;;;;;;;5.60;3.10;;;;;;;8.64;62.12;99514.92;108384;1257;61383;-56
2024/02/13 02:56:05;;;;;;;5.90;2.10;;;;;;;8.63;62.39;99513.48;105489;1254;63772;-56
2024/02/13 02:58:33;;;;;;;7.30;3.40;;;;;;;8.60;62.53;99515.06;105141;1254;60481;-57
2024/02/13 03:01:02;;;;;;;4.40;1.60;;;;;;;8.60;62.61;99519.60;104621;1254;60810;-46
2024/02/13 03:03:31;;;;;;;5.00;2.60;;;;;;;8.56;62.51;99522.45;104164;1256;66462;-48
2024/02/13 03:05:59;;;;;;;4.50;1.80;;;;;;;8.50;62.52;99526.23;105061;1254;61849;-54
2024/02/13 03:08:28;;;;;;;8.60;4.10;;;;;;;8.45;62.62;99529.48;108676;1256;62484;-55
2024/02/13 03:10:55;;;;;;;4.80;1.80;;;;;;;8.44;62.78;99531.51;108245;1254;435871;-55
2024/02/13 03:15:28;;;;;;;7.00;1.80;;;;;;;8.16;64.11;99534.11;101296;1291;601239;-55
2024/02/13 03:17:55;;;;;;;4.00;1.30;;;;;;;8.58;63.34;99533.05;107875;1267;59100;-56
2024/02/13 03:20:23;;;;;;;7.20;4.20;;;;;;;8.70;63.07;99533.77;107882;1267;57441;-55
2024/02/13 03:22:51;;;;;;;9.40;4.00;;;;;;;8.74;62.93;99534.48;107919;1267;65920;-56
2024/02/13 03:25:18;;;;;;;4.90;1.80;;;;;;;8.74;62.74;99540.96;107914;1267;60253;-54
2024/02/13 03:27:46;;;;;;;7.00;3.90;;;;;;;8.71;62.64;99541.06;107844;1267;62454;-54
2024/02/13 03:30:14;;;;;;;4.70;1.40;;;;;;;8.68;62.59;99540.80;104454;1266;250642;-54
2024/02/13 03:32:44;;;;;;;8.40;4.50;;;;;;;8.63;62.67;99538.45;108081;1265;57384;-55
2024/02/13 03:35:12;;;;;;;10.80;5.10;;;;;;;8.59;62.52;99543.13;107971;1265;62046;-55
2024/02/13 03:37:40;;;;;;;5.60;1.90;;;;;;;8.56;62.62;99548.09;107976;1264;60279;-55
2024/02/13 03:40:08;;;;;;;8.80;3.90;;;;;;;8.62;62.81;99553.54;107975;1265;63776;-55
2024/02/13 03:42:37;;;;;;;8.30;1.90;;;;;;;8.73;62.80;99553.30;107979;1265;58930;-54
2024/02/13 03:45:06;;;;;;;6.40;3.20;;;;;;;8.78;62.60;99554.79;107923;1265;59647;-55
2024/02/13 03:47:33;;;;;;;3.50;1.30;;;;;;;8.79;62.34;99558.04;107916;1265;65036;-56
2024/02/13 03:50:02;;;;;;;9.50;4.00;;;;;;;8.78;62.31;99555.02;108009;1264;64470;-57
2024/02/13 03:52:31;;;;;;;8.50;4.20;;;;;;;8.79;62.57;99550.35;108270;1260;62449;-55
2024/02/13 03:54:58;;;;;;;11.00;5.40;;;;;;;8.78;62.49;99552.94;108248;1260;59083;-56
2024/02/13 03:57:26;;;;;;;8.10;3.30;;;;;;;8.74;62.59;99551.95;108273;1260;59786;-57
2024/02/13 03:59:53;;;;;;;12.10;5.50;;;;;;;8.72;62.61;99552.04;108236;1260;65150;-56
2024/02/13 04:02:21;;;;;;;8.40;2.10;;;;;;;8.71;62.59;99552.61;105498;1265;60326;-57
2024/02/13 04:04:49;;;;;;;5.20;2.20;;;;;;;8.71;62.47;99555.19;103827;1260;66074;-57
2024/02/13 04:07:17;;;;;;;12.40;5.30;;;;;;;8.75;62.62;99556.98;105312;1261;59701;-56
2024/02/13 04:09:44;;;;;;;10.90;5.40;;;;;;;8.81;62.67;99560.69;108275;1261;58379;-57
2024/02/13 04:12:12;;;;;;;7.40;2.70;;;;;;;8.82;62.60;99558.89;108324;1262;66693;-57
2024/02/13 04:14:40;;;;;;;13.30;6.00;;;;;;;8.76;62.39;99561.14;108168;1260;61447;-58
2024/02/13 04:17:07;;;;;;;9.50;5.30;;;;;;;8.65;62.16;99568.80;107021;1263;64727;-56
2024/02/13 04:19:38;;;;;;;4.60;2.00;;;;;;;8.51;61.91;99569.65;103742;1265;59600;-57
2024/02/13 04:22:07;;;;;;;11.10;5.30;;;;;;;8.41;61.99;99568.59;104051;1258;59665;-56
2024/02/13 04:24:35;;;;;;;7.40;3.50;;;;;;;8.33;62.31;99569.58;104055;1258;62829;-56
2024/02/13 04:27:04;;;;;;;5.60;2.00;;;;;;;8.33;62.31;99577.23;104014;1259;63768;-57
2024/02/13 04:29:32;;;;;;;8.90;5.00;;;;;;;8.35;62.11;99583.23;107787;1258;62532;-57
2024/02/13 04:32:01;;;;;;;4.70;1.60;;;;;;;8.32;61.95;99584.30;105477;1262;59737;-57
2024/02/13 04:34:30;;;;;;;8.80;5.20;;;;;;;8.25;61.94;99586.00;105562;1258;59631;-57
2024/02/13 04:37:00;;;;;;;4.10;2.00;;;;;;;8.15;61.96;99584.91;104074;1258;62983;-57
2024/02/13 04:39:28;;;;;;;9.10;5.10;;;;;;;8.07;62.10;99584.16;108452;1257;60220;-57
2024/02/13 04:41:56;;;;;;;3.90;1.50;;;;;;;7.99;62.06;99590.37;106435;1257;63841;-57
2024/02/13 04:44:24;;;;;;;8.40;5.00;;;;;;;7.92;62.02;99589.36;104073;1258;59674;-55
2024/02/13 04:46:53;;;;;;;5.20;2.00;;;;;;;7.88;62.21;99590.08;106523;1258;59554;-57
2024/02/13 04:49:20;;;;;;;5.30;1.60;;;;;;;7.86;62.10;99598.23;105125;1259;64232;-57
2024/02/13 04:51:48;;;;;;;4.80;1.80;;;;;;;7.86;61.75;99599.63;105882;1260;60101;-57
2024/02/13 04:54:17;;;;;;;7.20;4.10;;;;;;;7.83;61.54;99598.64;104017;1259;63716;-56
2024/02/13 04:56:46;;;;;;;7.70;2.70;;;;;;;7.78;61.35;99605.30;103860;1261;59750;-54
2024/02/13 04:59:15;;;;;;;4.40;1.40;;;;;;;7.73;61.43;99608.02;106112;1257;59664;-55
2024/02/13 05:01:45;;;;;;;9.50;5.50;;;;;;;7.68;61.50;99615.78;103937;1257;62862;-55
2024/02/13 05:09:31;;;;;;;9.20;5.00;;;;;;;7.52;61.79;99629.88;104147;1257;61088;-57
2024/02/13 05:11:59;;;;;;;5.60;2.20;;;;;;;7.44;61.84;99635.46;105229;1258;59628;-56
2024/02/13 05:14:27;;;;;;;7.50;1.90;;;;;;;7.36;62.03;99637.64;107295;1258;62954;-57
2024/02/13 05:16:55;;;;;;;8.50;4.80;;;;;;;7.29;62.21;99635.41;106477;1256;60260;-58
2024/02/13 05:19:23;;;;;;;9.90;3.50;;;;;;;7.24;62.42;99634.36;105514;1259;62517;-54
2024/02/13 05:21:51;;;;;;;5.70;1.70;;;;;;;7.25;62.38;99638.64;104838;1262;59780;-55
2024/02/13 05:24:18;;;;;;;9.40;5.50;;;;;;;7.28;62.24;99650.14;104884;1262;59753;-56
2024/02/13 05:26:46;;;;;;;5.70;2.70;;;;;;;7.31;62.45;99655.13;104485;1257;64152;-56
2024/02/13 05:29:14;;;;;;;6.10;2.00;;;;;;;7.37;62.85;99653.77;104384;1262;60089;-56
2024/02/13 05:31:41;;;;;;;11.50;2.60;;;;;;;7.45;63.10;99658.77;108851;1257;63814;-54
2024/02/13 05:34:09;;;;;;;11.10;4.90;;;;;;;7.54;63.52;99663.16;108774;1257;58940;-50
2024/02/13 05:36:37;;;;;;;7.40;2.20;;;;;;;7.63;63.82;99662.60;108765;1257;57793;-55
2024/02/13 05:39:05;;;;;;;13.20;5.50;;;;;;;7.68;63.72;99659.56;108791;1257;63399;-51
2024/02/13 05:41:33;;;;;;;6.30;2.40;;;;;;;7.68;63.67;99664.09;108559;1257;60277;-48
2024/02/13 05:44:02;;;;;;;7.50;2.60;;;;;;;7.66;63.50;99673.55;104763;1260;62525;-49
2024/02/13 05:46:30;;;;;;;11.60;5.60;;;;;;;7.61;63.46;99676.50;104911;1262;59702;-50
2024/02/13 05:49:01;;;;;;;7.60;3.30;;;;;;;7.61;63.59;99679.64;106068;1263;59932;-60
2024/02/13 05:51:29;;;;;;;7.70;2.90;;;;;;;7.68;63.49;99679.47;109051;1253;64096;-57
2024/02/13 05:53:57;;;;;;;10.40;4.40;;;;;;;7.75;63.48;99673.16;109101;1253;61701;-59
2024/02/13 05:56:25;;;;;;;8.80;4.80;;;;;;;7.82;63.50;99679.22;108996;1253;63821;-54
2024/02/13 05:59:00;;;;;;;5.60;1.80;;;;;;;7.90;63.45;99683.31;109170;1253;59271;-56
2024/02/13 06:01:29;;;;;;;7.50;3.10;;;;;;;8.00;63.59;99685.11;108112;1253;60404;-61
2024/02/13 06:04:01;;;;;;;8.90;5.00;;;;;;;8.05;63.53;99688.05;109073;1253;64151;-58
2024/02/13 06:06:29;;;;;;;5.90;2.30;;;;;;;8.03;63.22;99684.02;108729;1253;69031;-58
2024/02/13 06:08:57;;;;;;;9.60;5.30;;;;;;;8.06;63.34;99681.04;108711;1253;63783;-51
2024/02/13 06:11:25;;;;;;;9.70;5.20;;;;;;;8.09;63.48;99684.11;105055;1254;59763;-50
2024/02/13 06:13:56;;;;;;;6.50;2.10;;;;;;;8.07;63.20;99683.54;104827;1254;59760;-47
2024/02/13 06:16:24;;;;;;;6.00;1.40;;;;;;;8.07;62.91;99684.45;105135;1257;62877;-49
2024/02/13 06:18:51;;;;;;;8.00;1.90;;;;;;;8.10;62.91;99687.63;105099;1258;60281;-48
2024/02/13 06:21:19;;;;;;;10.00;4.30;;;;;;;8.14;62.81;99687.98;105111;1258;62518;-52
2024/02/13 06:23:51;;;;;;;6.00;1.80;;;;;;;8.18;62.99;99688.97;105109;1257;60139;-49
2024/02/13 06:26:19;;;;;;;9.30;4.30;;;;;;;8.22;63.26;99691.56;105159;1253;59689;-48
2024/02/13 06:28:47;;;;;;;4.90;2.20;;;;;;;8.27;63.67;99688.91;106784;1253;62951;-50
2024/02/13 06:31:16;;;;;;;8.90;4.30;;;;;;;8.31;63.83;99685.94;105252;1258;60082;-50
2024/02/13 06:33:44;;;;;;;6.60;2.90;;;;;;;8.36;64.00;99685.15;104705;1254;63759;-48
2024/02/13 06:36:12;;;;;;;8.70;4.80;;;;;;;8.40;64.05;99689.06;104433;1253;60226;-50
2024/02/13 06:38:39;;;;;;;7.20;1.60;;;;;;;8.45;64.08;99689.23;104460;1253;59867;-50
2024/02/13 06:41:10;;;;;;;9.10;4.30;;;;;;;8.54;64.24;99691.97;105427;1254;62896;-52
2024/02/13 06:43:38;;;;;;;4.70;1.60;;;;;;;8.66;64.07;99692.21;105588;1257;62534;-49
2024/02/13 06:46:06;;;;;;;10.20;4.90;;;;;;;8.73;63.88;99691.43;104861;1258;63730;-48
2024/02/13 06:48:33;;;;;;;10.20;2.50;;;;;;;8.82;63.98;99694.41;105624;1258;59731;-55
2024/02/13 06:51:02;;;;;;;11.60;4.60;;;;;;;8.90;64.26;99691.22;105660;1257;59692;-59
2024/02/13 06:53:30;;;;;;;6.00;2.30;;;;;;;9.00;64.49;99690.96;106530;1254;64125;-61
2024/02/13 06:55:58;;;;;;;13.00;5.30;;;;;;;9.11;64.57;99689.52;105090;1258;60097;-66
2024/02/13 06:58:25;;;;;;;8.50;2.00;;;;;;;9.19;64.42;99694.59;106053;1259;63739;-67
2024/02/13 07:00:53;;;;;;;9.00;4.70;;;;;;;9.22;63.93;99697.10;105358;1253;59642;-66
2024/02/13 07:03:21;;;;;;;10.40;2.20;;;;;;;9.24;63.84;99699.58;105398;1253;60529;-57
2024/02/13 07:05:49;;;;;;;10.60;1.90;;;;;;;9.32;63.72;99701.35;105038;1257;63039;-59
2024/02/13 07:08:19;;;;;;;9.10;4.90;;;;;;;9.41;63.35;99703.76;108485;1253;61913;-67
2024/02/13 07:10:46;;;;;;;10.50;4.30;;;;;;;9.46;63.06;99708.92;108993;1253;62471;-66
2024/02/13 07:13:14;;;;;;;7.90;2.40;;;;;;;9.49;62.92;99702.85;106632;1253;59640;-65
2024/02/13 07:15:41;;;;;;;10.40;5.20;;;;;;;9.56;63.15;99703.72;105154;1256;59835;-59
2024/02/13 07:18:09;;;;;;;8.90;5.20;;;;;;;9.59;63.15;99702.86;104703;1256;62875;-62
2024/02/13 07:20:37;;;;;;;7.60;3.10;;;;;;;9.65;63.46;99700.43;105479;1258;60232;-65
2024/02/13 07:23:05;;;;;;;10.50;6.10;;;;;;;9.73;63.46;99708.21;106188;1258;62699;-64
2024/02/13 07:25:34;;;;;;;12.10;5.50;;;;;;;9.75;63.20;99715.17;106172;1254;60582;-66
2024/02/13 07:28:02;;;;;;;4.60;2.20;;;;;;;9.81;63.01;99713.63;105185;1258;60778;-61
2024/02/13 07:30:30;;;;;;;15.60;5.90;;;;;;;9.90;62.92;99710.58;104447;1255;63885;-61
2024/02/13 07:32:58;;;;;;;12.40;6.00;;;;;;;9.98;62.76;99709.63;104759;1253;62451;-61
2024/02/13 07:35:28;;;;;;;10.60;3.30;;;;;;;10.02;62.68;99707.73;107447;1258;64786;-56
2024/02/13 07:37:56;;;;;;;13.50;6.60;;;;;;;10.03;62.83;99708.00;104236;1253;60679;-58
2024/02/13 07:40:24;;;;;;;13.90;6.50;;;;;;;10.06;62.80;99714.17;108646;1253;58952;-54
2024/02/13 07:42:51;;;;;;;15.70;7.30;;;;;;;10.09;62.69;99729.67;108589;1258;65018;-53
2024/02/13 07:45:21;;;;;;;10.60;5.50;;;;;;;10.12;62.46;99737.67;108554;1253;60132;-57
2024/02/13 07:47:51;;;;;;;8.60;2.30;;;;;;;10.19;62.14;99740.05;108568;1253;62490;-60
2024/02/13 07:50:21;;;;;;;11.00;5.40;;;;;;;10.25;61.89;99747.05;107072;1258;59687;-60
2024/02/13 07:52:49;;;;;;;10.30;4.70;;;;;;;10.31;61.79;99741.81;106055;1253;60457;-60
2024/02/13 07:55:17;;;;;;;10.10;5.30;;;;;;;10.30;61.81;99741.14;105729;1256;64925;-61
2024/02/13 07:57:49;;;;;;;15.80;5.80;;;;;;;10.27;61.85;99742.86;105096;1258;60398;-60
2024/02/13 08:00:20;;;;;;;12.00;5.70;;;;;;;10.21;61.85;99741.77;106063;1258;62554;-62
2024/02/13 08:02:49;;;;;;;6.30;2.20;;;;;;;10.17;62.04;99738.77;105656;1256;60566;-61
2024/02/13 08:05:17;;;;;;;14.90;7.10;;;;;;;10.15;62.03;99735.45;104307;1253;60336;-62
2024/02/13 08:07:45;;;;;;;6.40;2.90;;;;;;;10.13;62.07;99739.20;108764;1253;76801;-64
2024/02/13 08:10:13;;;;;;;14.50;6.70;;;;;;;10.18;62.03;99741.38;108778;1253;63593;-63
2024/02/13 08:12:40;;;;;;;14.10;6.70;;;;;;;10.28;62.07;99739.13;108753;1253;62565;-60
2024/02/13 08:15:09;;;;;;;15.70;6.90;;;;;;;10.40;62.16;99739.63;106854;1258;60578;-62
2024/02/13 08:17:38;;;;;;;12.90;5.40;;;;;;;10.51;62.15;99740.80;104883;1258;60326;-63
2024/02/13 08:20:08;;;;;;;13.10;6.40;;;;;;;10.56;61.96;99739.45;104276;1254;73179;-61
2024/02/13 08:22:37;;;;;;;20.40;6.70;;;;;;;10.58;61.42;99741.36;105494;1253;72095;-63
2024/02/13 08:25:07;;;;;;;17.00;7.10;;;;;;;10.56;61.11;99737.43;104799;1253;74745;-63
2024/02/13 08:27:36;;;;;;;8.20;3.00;;;;;;;10.58;61.25;99738.70;108741;1253;59707;-63
2024/02/13 08:30:09;;;;;;;14.80;6.50;;;;;;;10.67;60.88;99739.46;108598;1254;58358;-65
2024/02/13 08:32:42;;;;;;;17.50;6.30;;;;;;;10.76;60.68;99740.08;108624;1253;67213;-57
2024/02/13 08:35:10;;;;;;;18.30;7.00;;;;;;;10.88;60.67;99740.55;105703;1254;72598;-58
2024/02/13 08:37:37;;;;;;;14.40;6.90;;;;;;;10.96;60.58;99745.45;104257;1258;63862;-59
2024/02/13 08:40:06;;;;;;;13.00;6.00;;;;;;;11.02;60.65;99753.13;104094;1256;60499;-57
2024/02/13 08:42:34;;;;;;;14.60;7.20;;;;;;;11.05;60.27;99756.02;104204;1254;60417;-65
2024/02/13 08:45:03;;;;;;;16.60;7.10;;;;;;;11.05;60.13;99757.48;105814;1253;63758;-68
2024/02/13 08:47:30;;;;;;;8.50;3.20;;;;;;;11.03;59.91;99755.02;104186;1253;61470;-63
2024/02/13 08:49:58;;;;;;;12.20;5.70;;;;;;;11.04;59.52;99763.66;104084;1254;74326;-59
2024/02/13 08:52:26;;;;;;;13.40;6.00;;;;;;;11.08;59.44;99761.01;104177;1258;60560;-60
2024/02/13 08:54:54;;;;;;;14.20;6.10;;;;;;;11.12;59.43;99761.35;108826;1253;58763;-59
2024/02/13 08:57:22;;;;;;;12.50;6.00;;;;;;;11.13;59.39;99758.12;107115;1260;67274;-66
2024/02/13 08:59:52;;;;;;;12.20;6.00;;;;;;;11.12;59.33;99760.99;105282;1253;61840;-63
2024/02/13 09:02:23;;;;;;;12.80;6.10;;;;;;;11.08;59.33;99759.12;104300;1257;67908;-68
2024/02/13 09:04:51;;;;;;;6.90;2.80;;;;;;;11.05;59.57;99761.85;108621;1258;58421;-65
2024/02/13 09:07:19;;;;;;;11.70;6.20;;;;;;;11.10;59.46;99766.76;108626;1253;62241;-69
2024/02/13 09:09:46;;;;;;;14.70;6.20;;;;;;;11.18;59.31;99765.33;108801;1253;63910;-67
2024/02/13 09:12:14;;;;;;;10.90;5.50;;;;;;;11.25;59.13;99761.89;105834;1255;72316;-67
2024/02/13 09:14:42;;;;;;;11.80;6.00;;;;;;;11.26;59.04;99763.58;105175;1256;62518;-66
2024/02/13 09:17:10;;;;;;;12.90;5.60;;;;;;;11.26;58.95;99767.07;105157;1255;63016;-70
2024/02/13 09:19:42;;;;;;;17.00;6.20;;;;;;;11.27;58.99;99766.85;105136;1252;59567;-68
2024/02/13 09:22:13;;;;;;;17.20;6.00;;;;;;;11.28;59.15;99767.61;105422;1258;75978;-67
2024/02/13 09:24:50;;;;;;;23.10;6.30;;;;;;;11.30;59.16;99772.71;105414;1258;62898;-67
2024/02/13 09:27:23;;;;;;;12.60;5.30;;;;;;;11.36;59.10;99772.15;105773;1256;65837;-71
2024/02/13 09:29:53;;;;;;;13.40;5.30;;;;;;;11.44;58.94;99767.15;105811;1255;62402;-70
2024/02/13 09:32:21;;;;;;;12.40;5.50;;;;;;;11.47;58.77;99768.98;105541;1256;60538;-69
2024/02/13 09:34:51;;;;;;;17.30;7.20;;;;;;;11.48;58.78;99767.34;105314;1258;65162;-68
2024/02/13 09:37:19;;;;;;;13.90;5.70;;;;;;;11.49;58.83;99766.55;105189;1258;60413;-69
2024/02/13 09:39:46;;;;;;;14.70;6.00;;;;;;;11.51;58.98;99762.05;105069;1256;63811;-62
2024/02/13 09:42:16;;;;;;;12.40;4.00;;;;;;;11.55;59.08;99759.96;106192;1254;60456;-70
2024/02/13 09:44:44;;;;;;;12.90;5.20;;;;;;;11.64;59.00;99763.38;104185;1261;60449;-69
2024/02/13 09:47:12;;;;;;;11.70;5.40;;;;;;;11.75;58.87;99767.33;104341;1253;67614;-58
2024/02/13 09:49:40;;;;;;;12.80;6.50;;;;;;;11.84;58.78;99766.08;104224;1258;60469;-58
2024/02/13 09:52:12;;;;;;;15.00;6.00;;;;;;;11.91;58.81;99766.84;104277;1253;75742;-60
2024/02/13 09:54:40;;;;;;;16.60;5.90;;;;;;;11.96;58.76;99773.05;104229;1254;61400;-57
2024/02/13 09:57:09;;;;;;;12.00;5.70;;;;;;;12.01;58.54;99771.13;107719;1258;62622;-61
2024/02/13 09:59:37;;;;;;;14.30;6.60;;;;;;;12.02;58.58;99767.72;104401;1254;67029;-72
2024/02/13 10:02:05;;;;;;;15.40;6.10;;;;;;;12.04;58.54;99767.38;108920;1253;61589;-67
2024/02/13 10:04:33;;;;;;;13.60;5.50;;;;;;;12.12;58.61;99773.44;108893;1253;73936;-70
2024/02/13 10:07:01;;;;;;;13.80;5.20;;;;;;;12.20;58.41;99783.27;108576;1253;62585;-68
2024/02/13 10:09:29;;;;;;;15.30;5.30;;;;;;;12.28;58.44;99780.19;108561;1253;58343;-61
2024/02/13 10:11:58;;;;;;;15.80;5.10;;;;;;;12.34;58.58;99782.77;108637;1253;67669;-70
2024/02/13 10:14:26;;;;;;;13.80;5.70;;;;;;;12.40;58.65;99786.50;108814;1253;72069;-68
2024/02/13 10:16:56;;;;;;;10.30;4.80;;;;;;;12.41;58.71;99788.52;106657;1260;62485;-66
2024/02/13 10:19:27;;;;;;;11.20;4.10;;;;;;;12.43;58.64;99794.74;104190;1260;61116;-72
2024/02/13 10:22:05;;;;;;;10.00;4.50;;;;;;;12.44;58.79;99789.70;104177;1253;60382;-65
2024/02/13 10:24:35;;;;;;;12.20;4.20;;;;;;;12.45;58.78;99789.21;104944;1256;63828;-63
2024/02/13 10:27:03;;;;;;;12.00;4.60;;;;;;;12.49;58.86;99789.78;105224;1256;61556;-68
2024/02/13 10:29:44;;;;;;;10.00;3.80;;;;;;;12.54;58.63;99789.77;105824;1258;62712;-68
2024/02/13 10:32:11;;;;;;;9.10;4.10;;;;;;;12.63;58.77;99791.01;105596;1256;60523;-65
2024/02/13 10:34:39;;;;;;;10.00;4.10;;;;;;;12.70;58.71;99791.89;104906;1253;60530;-68
2024/02/13 10:37:08;;;;;;;13.80;4.10;;;;;;;12.77;58.73;99793.48;105094;1259;64920;-65
2024/02/13 10:39:36;;;;;;;8.20;4.30;;;;;;;12.80;58.41;99791.27;105428;1253;73201;-66
2024/02/13 10:42:10;;;;;;;12.80;4.50;;;;;;;12.80;58.16;99789.39;108608;1253;69576;-68
2024/02/13 10:44:43;;;;;;;11.00;4.60;;;;;;;12.79;57.79;99784.09;108616;1253;61050;-69
2024/02/13 10:47:11;;;;;;;11.00;4.00;;;;;;;12.81;57.84;99783.05;108580;1253;59087;-68
2024/02/13 10:49:53;;;;;;;8.00;3.90;;;;;;;12.89;57.61;99781.63;108624;1253;66065;-67
2024/02/13 10:52:22;;;;;;;11.10;4.60;;;;;;;13.01;57.33;99781.48;105180;1253;63807;-71
2024/02/13 10:54:49;;;;;;;8.50;4.00;;;;;;;13.10;57.49;99782.35;104594;1259;66126;-70
2024/02/13 10:57:17;;;;;;;10.60;4.20;;;;;;;13.17;57.24;99784.25;104124;1260;60741;-70
2024/02/13 10:59:45;;;;;;;8.20;3.80;;;;;;;13.24;57.10;99785.55;105787;1256;60473;-72
2024/02/13 11:02:17;;;;;;;11.30;4.60;;;;;;;13.26;56.71;99789.06;104337;1253;64099;-70
2024/02/13 11:04:46;;;;;;;10.70;4.90;;;;;;;13.26;56.49;99792.03;104770;1253;63703;-66
2024/02/13 11:07:14;;;;;;;9.00;4.00;;;;;;;13.26;56.75;99791.11;104950;1262;66137;-61
2024/02/13 11:09:43;;;;;;;10.30;3.70;;;;;;;13.29;56.92;99792.98;104300;1254;61030;-63
2024/02/13 11:12:10;;;;;;;9.50;4.30;;;;;;;13.37;56.98;99794.30;104870;1254;62273;-60
2024/02/13 11:14:38;;;;;;;10.40;4.90;;;;;;;13.46;56.86;99797.42;107920;1253;76315;-59
2024/02/13 11:17:09;;;;;;;10.70;4.30;;;;;;;13.51;56.64;99797.13;108649;1254;63845;-61
2024/02/13 11:19:38;;;;;;;9.60;4.00;;;;;;;13.57;56.49;99791.89;108626;1258;73758;-60
2024/02/13 11:22:14;;;;;;;9.70;4.70;;;;;;;13.64;56.10;99786.80;108630;1253;62338;-62
2024/02/13 11:24:51;;;;;;;14.20;4.70;;;;;;;13.65;55.53;99782.62;105450;1253;61007;-61
2024/02/13 11:27:23;;;;;;;12.00;4.80;;;;;;;13.63;55.30;99781.80;108790;1254;63684;-61
2024/02/13 11:29:58;;;;;;;11.10;5.20;;;;;;;13.62;55.23;99780.36;104914;1258;63152;-60
2024/02/13 11:32:33;;;;;;;11.30;4.50;;;;;;;13.60;55.37;99785.98;108633;1256;77342;-61
2024/02/13 11:35:07;;;;;;;10.80;4.70;;;;;;;13.58;55.38;99785.59;108760;1255;63908;-62
2024/02/13 11:37:34;;;;;;;10.00;4.00;;;;;;;13.62;55.09;99775.90;108763;1254;58885;-61